createdAt,value
2023-03-17T00:01:05.174Z,98782.00
2023-03-17T00:02:41.901Z,98776.00
2023-03-17T00:04:15.637Z,98769.00
2023-03-17T00:05:48.049Z,98773.00
2023-03-17T00:07:22.399Z,98769.00
2023-03-17T00:08:56.056Z,98771.00
2023-03-17T00:10:29.593Z,98770.00
2023-03-17T00:12:02.885Z,98772.00
2023-03-17T00:13:36.593Z,98765.00
2023-03-17T00:15:10.995Z,98773.00
2023-03-17T00:16:49.754Z,98766.00
2023-03-17T00:18:25.016Z,98765.00
2023-03-17T00:19:58.411Z,98769.00
2023-03-17T00:21:35.572Z,98766.00
2023-03-17T00:23:16.830Z,98764.00
2023-03-17T00:24:49.499Z,98768.00
2023-03-17T00:26:23.301Z,98759.00
2023-03-17T00:27:59.714Z,98754.00
2023-03-17T00:29:33.540Z,98758.00
2023-03-17T00:31:15.509Z,98761.00
2023-03-17T00:32:50.630Z,98756.00
2023-03-17T00:34:24.656Z,98765.00
2023-03-17T00:35:59.342Z,98757.00
2023-03-17T00:37:33.075Z,98757.00
2023-03-17T00:39:17.275Z,98746.00
2023-03-17T00:40:50.992Z,98760.00
2023-03-17T00:42:23.361Z,98755.00
2023-03-17T00:43:57.417Z,98754.00
2023-03-17T00:45:30.860Z,98752.00
2023-03-17T00:47:03.177Z,98758.00
2023-03-17T00:48:36.981Z,98750.00
2023-03-17T00:50:16.201Z,98764.00
2023-03-17T00:51:50.583Z,98764.00
2023-03-17T00:53:23.665Z,98773.00
2023-03-17T00:54:57.018Z,98777.00
2023-03-17T00:56:30.230Z,98777.00
2023-03-17T00:58:04.384Z,98794.00
2023-03-17T00:59:42.386Z,98788.00
2023-03-17T01:01:18.364Z,98796.00
2023-03-17T01:02:56.241Z,98800.00
2023-03-17T01:04:28.643Z,98796.00
2023-03-17T01:06:04.837Z,98794.00
2023-03-17T01:07:38.666Z,98792.00
2023-03-17T01:09:15.398Z,98793.00
2023-03-17T01:10:49.618Z,98802.00
2023-03-17T01:12:26.255Z,98797.00
2023-03-17T01:13:59.598Z,98795.00
2023-03-17T01:15:36.354Z,98787.00
2023-03-17T01:17:13.678Z,98782.00
2023-03-17T01:18:46.827Z,98781.00
2023-03-17T01:20:23.770Z,98777.00
2023-03-17T01:21:58.228Z,98768.00
2023-03-17T01:23:31.622Z,98769.00
2023-03-17T01:25:04.895Z,98761.00
2023-03-17T01:26:39.139Z,98765.00
2023-03-17T01:28:16.673Z,98770.00
2023-03-17T01:29:53.149Z,98774.00
2023-03-17T01:31:26.529Z,98767.00
2023-03-17T01:33:00.717Z,98768.00
2023-03-17T01:34:35.050Z,98758.00
2023-03-17T01:36:11.641Z,98770.00
2023-03-17T01:37:46.961Z,98776.00
2023-03-17T01:39:20.697Z,98775.00
2023-03-17T01:40:53.707Z,98773.00
2023-03-17T01:42:27.989Z,98775.00
2023-03-17T01:44:00.216Z,98783.00
2023-03-17T01:46:20.744Z,98782.00
2023-03-17T01:47:54.874Z,98770.00
2023-03-17T01:49:33.191Z,98781.00
2023-03-17T01:51:08.985Z,98774.00
2023-03-17T01:52:42.457Z,98773.00
2023-03-17T01:54:24.152Z,98769.00
2023-03-17T01:55:57.946Z,98764.00
2023-03-17T01:57:37.006Z,98760.00
2023-03-17T01:59:19.062Z,98762.00
2023-03-17T02:00:52.857Z,98752.00
2023-03-17T02:02:32.824Z,98749.00
2023-03-17T02:04:07.713Z,98745.00
2023-03-17T02:05:43.325Z,98736.00
2023-03-17T02:07:16.005Z,98745.00
2023-03-17T02:08:49.564Z,98746.00
2023-03-17T02:10:27.366Z,98742.00
2023-03-17T02:12:04.029Z,98738.00
2023-03-17T02:13:38.810Z,98731.00
2023-03-17T02:15:13.015Z,98722.00
2023-03-17T02:16:47.011Z,98718.00
2023-03-17T02:18:24.861Z,98722.00
2023-03-17T02:19:58.325Z,98715.00
2023-03-17T02:21:45.165Z,98702.00
2023-03-17T02:23:22.341Z,98711.00
2023-03-17T02:25:00.716Z,98696.00
2023-03-17T02:26:35.611Z,98694.00
2023-03-17T02:28:15.058Z,98693.00
2023-03-17T02:29:48.666Z,98690.00
2023-03-17T02:31:21.248Z,98690.00
2023-03-17T02:32:54.649Z,98697.00
2023-03-17T02:34:28.484Z,98695.00
2023-03-17T02:36:01.369Z,98698.00
2023-03-17T02:37:36.572Z,98685.00
2023-03-17T02:39:09.872Z,98687.00
2023-03-17T02:40:43.108Z,98676.00
2023-03-17T02:42:16.856Z,98676.00
2023-03-17T02:43:48.977Z,98674.00
2023-03-17T02:45:22.146Z,98676.00
2023-03-17T02:46:55.377Z,98677.00
2023-03-17T02:48:28.143Z,98683.00
2023-03-17T02:50:01.280Z,98672.00
2023-03-17T02:51:33.512Z,98680.00
2023-03-17T02:53:08.095Z,98677.00
2023-03-17T02:54:41.203Z,98669.00
2023-03-17T02:56:13.401Z,98676.00
2023-03-17T02:57:46.638Z,98671.00
2023-03-17T02:59:19.696Z,98676.00
2023-03-17T03:00:51.984Z,98672.00
2023-03-17T03:02:25.670Z,98673.00
2023-03-17T03:03:59.760Z,98673.00
2023-03-17T03:05:32.036Z,98682.00
2023-03-17T03:07:05.929Z,98669.00
2023-03-17T03:08:40.535Z,98680.00
2023-03-17T03:10:13.523Z,98684.00
2023-03-17T03:11:47.311Z,98679.00
2023-03-17T03:13:20.663Z,98685.00
2023-03-17T03:14:53.767Z,98687.00
2023-03-17T03:16:27.208Z,98684.00
2023-03-17T03:18:00.630Z,98683.00
2023-03-17T03:19:33.866Z,98691.00
2023-03-17T03:21:08.071Z,98693.00
2023-03-17T03:22:41.379Z,98693.00
2023-03-17T03:24:15.837Z,98698.00
2023-03-17T03:25:49.116Z,98707.00
2023-03-17T03:27:21.611Z,98701.00
2023-03-17T03:28:57.183Z,98706.00
2023-03-17T03:30:29.497Z,98707.00
2023-03-17T03:32:02.876Z,98707.00
2023-03-17T03:33:35.256Z,98712.00
2023-03-17T03:35:10.382Z,98704.00
2023-03-17T03:36:43.788Z,98705.00
2023-03-17T03:38:17.853Z,98696.00
2023-03-17T03:39:51.407Z,98713.00
2023-03-17T03:41:24.633Z,98708.00
2023-03-17T03:42:57.018Z,98710.00
2023-03-17T03:44:30.225Z,98713.00
2023-03-17T03:46:03.588Z,98707.00
2023-03-17T03:47:36.873Z,98705.00
2023-03-17T03:49:10.204Z,98708.00
2023-03-17T03:50:42.632Z,98698.00
2023-03-17T03:52:15.765Z,98694.00
2023-03-17T03:53:49.129Z,98695.00
2023-03-17T03:55:23.546Z,98702.00
2023-03-17T03:56:57.216Z,98699.00
2023-03-17T03:58:30.651Z,98690.00
2023-03-17T04:00:05.254Z,98687.00
2023-03-17T04:01:45.548Z,98690.00
2023-03-17T04:03:18.730Z,98699.00
2023-03-17T04:04:51.838Z,98693.00
2023-03-17T04:06:24.954Z,98679.00
2023-03-17T04:07:58.156Z,98665.00
2023-03-17T04:09:30.734Z,98661.00
2023-03-17T04:11:05.458Z,98659.00
2023-03-17T04:12:39.072Z,98660.00
2023-03-17T04:14:12.579Z,98667.00
2023-03-17T04:15:45.901Z,98671.00
2023-03-17T04:17:18.028Z,98666.00
2023-03-17T04:18:51.474Z,98677.00
2023-03-17T04:20:24.701Z,98677.00
2023-03-17T04:21:56.879Z,98681.00
2023-03-17T04:23:31.405Z,98678.00
2023-03-17T04:25:05.465Z,98672.00
2023-03-17T04:26:40.161Z,98681.00
2023-03-17T04:28:13.284Z,98678.00
2023-03-17T04:29:47.504Z,98674.00
2023-03-17T04:31:21.006Z,98687.00
2023-03-17T04:32:54.087Z,98674.00
2023-03-17T04:34:27.210Z,98673.00
2023-03-17T04:36:00.363Z,98675.00
2023-03-17T04:37:34.703Z,98676.00
2023-03-17T04:39:07.509Z,98677.00
2023-03-17T04:40:40.735Z,98679.00
2023-03-17T04:42:15.885Z,98673.00
2023-03-17T04:43:48.240Z,98678.00
2023-03-17T04:45:21.672Z,98680.00
2023-03-17T04:46:54.831Z,98679.00
2023-03-17T04:48:28.123Z,98668.00
2023-03-17T04:50:02.644Z,98678.00
2023-03-17T04:51:36.778Z,98674.00
2023-03-17T04:53:10.054Z,98679.00
2023-03-17T04:54:43.408Z,98680.00
2023-03-17T04:56:17.386Z,98682.00
2023-03-17T04:57:51.794Z,98675.00
2023-03-17T04:59:24.917Z,98691.00
2023-03-17T05:00:58.136Z,98678.00
2023-03-17T05:02:31.925Z,98688.00
2023-03-17T05:04:04.314Z,98682.00
2023-03-17T05:05:37.658Z,98690.00
2023-03-17T05:07:10.807Z,98687.00
2023-03-17T05:08:45.416Z,98688.00
2023-03-17T05:10:19.121Z,98678.00
2023-03-17T05:11:52.461Z,98683.00
2023-03-17T05:13:28.192Z,98678.00
2023-03-17T05:15:01.327Z,98687.00
2023-03-17T05:16:34.448Z,98679.00
2023-03-17T05:18:06.617Z,98672.00
2023-03-17T05:19:39.921Z,98662.00
2023-03-17T05:21:13.087Z,98664.00
2023-03-17T05:22:46.447Z,98665.00
2023-03-17T05:24:19.552Z,98671.00
2023-03-17T05:25:52.702Z,98669.00
2023-03-17T05:27:26.163Z,98673.00
2023-03-17T05:29:00.545Z,98672.00
2023-03-17T05:30:36.475Z,98682.00
2023-03-17T05:32:09.773Z,98683.00
2023-03-17T05:33:43.377Z,98676.00
2023-03-17T05:35:17.384Z,98683.00
2023-03-17T05:36:50.674Z,98682.00
2023-03-17T05:38:24.203Z,98689.00
2023-03-17T05:39:57.562Z,98673.00
2023-03-17T05:41:30.977Z,98674.00
2023-03-17T05:43:04.666Z,98689.00
2023-03-17T05:44:39.536Z,98684.00
2023-03-17T05:46:12.824Z,98687.00
2023-03-17T05:47:47.356Z,98679.00
2023-03-17T05:49:20.512Z,98678.00
2023-03-17T05:50:53.592Z,98675.00
2023-03-17T05:52:27.000Z,98677.00
2023-03-17T05:54:00.426Z,98681.00
2023-03-17T05:55:33.611Z,98684.00
2023-03-17T05:57:05.810Z,98673.00
2023-03-17T05:58:39.136Z,98678.00
2023-03-17T06:00:16.771Z,98676.00
2023-03-17T06:01:50.106Z,98671.00
2023-03-17T06:03:23.348Z,98665.00
2023-03-17T06:04:56.617Z,98672.00
2023-03-17T06:06:30.259Z,98663.00
2023-03-17T06:08:05.139Z,98658.00
2023-03-17T06:09:38.748Z,98660.00
2023-03-17T06:11:12.123Z,98666.00
2023-03-17T06:12:45.331Z,98660.00
2023-03-17T06:14:18.618Z,98654.00
2023-03-17T06:15:53.135Z,98648.00
2023-03-17T06:17:26.415Z,98652.00
2023-03-17T06:18:59.804Z,98659.00
2023-03-17T06:20:33.255Z,98651.00
2023-03-17T06:22:06.957Z,98651.00
2023-03-17T06:23:40.187Z,98646.00
2023-03-17T06:25:14.074Z,98651.00
2023-03-17T06:26:47.380Z,98653.00
2023-03-17T06:28:20.637Z,98657.00
2023-03-17T06:29:53.815Z,98661.00
2023-03-17T06:31:28.657Z,98668.00
2023-03-17T06:33:02.642Z,98673.00
2023-03-17T06:34:35.081Z,98674.00
2023-03-17T06:36:09.136Z,98673.00
2023-03-17T06:37:42.580Z,98679.00
2023-03-17T06:39:18.013Z,98670.00
2023-03-17T06:40:51.518Z,98684.00
2023-03-17T06:42:24.670Z,98668.00
2023-03-17T06:43:57.731Z,98677.00
2023-03-17T06:45:32.803Z,98671.00
2023-03-17T06:47:08.213Z,98675.00
2023-03-17T06:48:41.395Z,98665.00
2023-03-17T06:50:14.736Z,98672.00
2023-03-17T06:51:47.857Z,98670.00
2023-03-17T06:53:20.941Z,98662.00
2023-03-17T06:54:54.031Z,98670.00
2023-03-17T06:56:30.319Z,98657.00
2023-03-17T06:58:04.258Z,98677.00
2023-03-17T06:59:37.660Z,98671.00
2023-03-17T07:01:11.986Z,98664.00
2023-03-17T07:02:47.236Z,98663.00
2023-03-17T07:04:20.846Z,98667.00
2023-03-17T07:05:54.726Z,98660.00
2023-03-17T07:07:28.272Z,98665.00
2023-03-17T07:09:02.362Z,98656.00
2023-03-17T07:10:36.612Z,98661.00
2023-03-17T07:12:10.285Z,98667.00
2023-03-17T07:13:43.550Z,98664.00
2023-03-17T07:15:18.765Z,98665.00
2023-03-17T07:16:51.982Z,98655.00
2023-03-17T07:18:26.665Z,98652.00
2023-03-17T07:20:00.000Z,98657.00
2023-03-17T07:21:33.402Z,98660.00
2023-03-17T07:23:06.586Z,98659.00
2023-03-17T07:24:41.802Z,98656.00
2023-03-17T07:26:14.956Z,98656.00
2023-03-17T07:27:48.069Z,98657.00
2023-03-17T07:29:22.617Z,98662.00
2023-03-17T07:30:57.787Z,98667.00
2023-03-17T07:32:31.129Z,98666.00
2023-03-17T07:34:06.572Z,98661.00
2023-03-17T07:35:39.887Z,98655.00
2023-03-17T07:37:13.156Z,98657.00
2023-03-17T07:38:46.546Z,98659.00
2023-03-17T07:40:20.431Z,98654.00
2023-03-17T07:41:55.179Z,98664.00
2023-03-17T07:43:28.581Z,98653.00
2023-03-17T07:45:01.777Z,98658.00
2023-03-17T07:46:34.988Z,98661.00
2023-03-17T07:48:09.520Z,98658.00
2023-03-17T07:49:44.183Z,98657.00
2023-03-17T07:51:21.439Z,98649.00
2023-03-17T07:52:54.518Z,98649.00
2023-03-17T07:54:28.931Z,98648.00
2023-03-17T07:56:02.327Z,98641.00
2023-03-17T07:57:35.916Z,98640.00
2023-03-17T07:59:09.112Z,98656.00
2023-03-17T08:00:42.252Z,98650.00
2023-03-17T08:02:17.633Z,98647.00
2023-03-17T08:03:51.202Z,98629.00
2023-03-17T08:05:25.636Z,98625.00
2023-03-17T08:06:58.976Z,98634.00
2023-03-17T08:08:32.421Z,98625.00
2023-03-17T08:10:07.388Z,98622.00
2023-03-17T08:11:40.535Z,98625.00
2023-03-17T08:13:16.839Z,98634.00
2023-03-17T08:14:50.249Z,98637.00
2023-03-17T08:16:23.411Z,98647.00
2023-03-17T08:17:56.548Z,98638.00
2023-03-17T08:19:29.804Z,98636.00
2023-03-17T08:21:04.485Z,98644.00
2023-03-17T08:22:37.889Z,98639.00
2023-03-17T08:24:11.087Z,98638.00
2023-03-17T08:25:44.504Z,98638.00
2023-03-17T08:27:20.624Z,98629.00
2023-03-17T08:28:54.023Z,98637.00
2023-03-17T08:30:27.408Z,98643.00
2023-03-17T08:32:00.871Z,98641.00
2023-03-17T08:33:33.013Z,98637.00
2023-03-17T08:35:07.548Z,98640.00
2023-03-17T08:36:42.011Z,98643.00
2023-03-17T08:38:15.528Z,98643.00
2023-03-17T08:39:49.299Z,98640.00
2023-03-17T08:41:25.291Z,98637.00
2023-03-17T08:42:58.527Z,98640.00
2023-03-17T08:44:32.035Z,98633.00
2023-03-17T08:46:09.632Z,98640.00
2023-03-17T08:47:43.081Z,98648.00
2023-03-17T08:49:16.425Z,98643.00
2023-03-17T08:50:49.822Z,98643.00
2023-03-17T08:52:24.520Z,98648.00
2023-03-17T08:53:58.682Z,98652.00
2023-03-17T08:55:31.779Z,98647.00
2023-03-17T08:57:05.099Z,98643.00
2023-03-17T08:58:40.389Z,98645.00
2023-03-17T09:00:20.267Z,98654.00
2023-03-17T09:01:53.447Z,98661.00
2023-03-17T09:03:26.556Z,98666.00
2023-03-17T09:04:59.785Z,98659.00
2023-03-17T09:06:33.584Z,98656.00
2023-03-17T09:08:08.224Z,98664.00
2023-03-17T09:09:42.221Z,98663.00
2023-03-17T09:11:20.228Z,98659.00
2023-03-17T09:12:53.429Z,98651.00
2023-03-17T09:14:28.403Z,98649.00
2023-03-17T09:16:02.803Z,98656.00
2023-03-17T09:17:36.167Z,98650.00
2023-03-17T09:19:09.406Z,98652.00
2023-03-17T09:20:42.721Z,98653.00
2023-03-17T09:22:18.863Z,98651.00
2023-03-17T09:23:53.311Z,98645.00
2023-03-17T09:25:27.301Z,98640.00
2023-03-17T09:27:01.322Z,98636.00
2023-03-17T09:28:34.734Z,98635.00
2023-03-17T09:30:10.992Z,98631.00
2023-03-17T09:31:44.202Z,98624.00
2023-03-17T09:33:18.006Z,98637.00
2023-03-17T09:34:51.707Z,98637.00
2023-03-17T09:36:25.332Z,98635.00
2023-03-17T09:37:59.375Z,98627.00
2023-03-17T09:39:34.568Z,98635.00
2023-03-17T09:41:39.985Z,98645.00
2023-03-17T09:43:27.483Z,98654.00
2023-03-17T09:45:17.832Z,98648.00
2023-03-17T09:47:04.161Z,98659.00
2023-03-17T09:48:48.433Z,98660.00
2023-03-17T09:50:27.935Z,98670.00
2023-03-17T09:52:01.401Z,98670.00
2023-03-17T09:53:42.718Z,98675.00
2023-03-17T09:55:27.669Z,98666.00
2023-03-17T09:57:12.798Z,98672.00
2023-03-17T09:58:53.688Z,98669.00
2023-03-17T10:00:31.054Z,98668.00
2023-03-17T10:02:14.244Z,98669.00
2023-03-17T10:03:50.358Z,98655.00
2023-03-17T10:05:26.579Z,98660.00
2023-03-17T10:07:05.444Z,98654.00
2023-03-17T10:08:47.697Z,98649.00
2023-03-17T10:10:31.335Z,98655.00
2023-03-17T10:12:13.426Z,98656.00
2023-03-17T10:13:58.220Z,98647.00
2023-03-17T10:15:38.283Z,98646.00
2023-03-17T10:17:18.352Z,98640.00
2023-03-17T10:18:56.871Z,98651.00
2023-03-17T10:20:35.782Z,98644.00
2023-03-17T10:22:21.617Z,98650.00
2023-03-17T10:23:57.335Z,98645.00
2023-03-17T10:25:35.786Z,98643.00
2023-03-17T10:27:12.271Z,98638.00
2023-03-17T10:28:45.912Z,98646.00
2023-03-17T10:30:23.306Z,98643.00
2023-03-17T10:31:58.670Z,98639.00
2023-03-17T10:33:32.634Z,98641.00
2023-03-17T10:35:06.993Z,98635.00
2023-03-17T10:36:44.330Z,98637.00
2023-03-17T10:38:21.402Z,98633.00
2023-03-17T10:39:59.930Z,98635.00
2023-03-17T10:41:39.520Z,98634.00
2023-03-17T10:43:20.593Z,98614.00
2023-03-17T10:44:57.675Z,98614.00
2023-03-17T10:46:31.252Z,98607.00
2023-03-17T10:48:10.006Z,98617.00
2023-03-17T10:49:46.040Z,98607.00
2023-03-17T10:51:33.498Z,98610.00
2023-03-17T10:53:10.846Z,98608.00
2023-03-17T10:54:51.279Z,98611.00
2023-03-17T10:56:29.977Z,98610.00
2023-03-17T10:58:13.583Z,98609.00
2023-03-17T10:59:56.443Z,98612.00
2023-03-17T11:01:36.895Z,98611.00
2023-03-17T11:03:19.729Z,98604.00
2023-03-17T11:05:00.595Z,98594.00
2023-03-17T11:06:42.024Z,98608.00
2023-03-17T11:08:21.031Z,98596.00
2023-03-17T11:10:02.641Z,98590.00
2023-03-17T11:11:45.848Z,98590.00
2023-03-17T11:13:21.128Z,98584.00
2023-03-17T11:15:03.440Z,98587.00
2023-03-17T11:16:40.637Z,98590.00
2023-03-17T11:18:22.513Z,98594.00
2023-03-17T11:20:11.376Z,98587.00
2023-03-17T11:21:55.534Z,98586.00
2023-03-17T11:23:51.244Z,98590.00
2023-03-17T11:25:25.756Z,98581.00
2023-03-17T11:27:03.976Z,98581.00
2023-03-17T11:28:45.347Z,98583.00
2023-03-17T11:30:32.582Z,98589.00
2023-03-17T11:32:28.149Z,98593.00
2023-03-17T11:34:09.100Z,98601.00
2023-03-17T11:35:55.236Z,98596.00
2023-03-17T11:37:56.560Z,98586.00
2023-03-17T11:39:43.321Z,98586.00
2023-03-17T11:41:44.834Z,98588.00
2023-03-17T11:43:35.271Z,98593.00
2023-03-17T11:45:31.366Z,98596.00
2023-03-17T11:47:20.791Z,98589.00
2023-03-17T11:49:04.045Z,98593.00
2023-03-17T11:50:51.431Z,98600.00
2023-03-17T11:52:33.477Z,98598.00
2023-03-17T11:54:18.788Z,98592.00
2023-03-17T11:55:57.774Z,98585.00
2023-03-17T11:57:38.731Z,98593.00
2023-03-17T11:59:26.925Z,98587.00
2023-03-17T12:01:08.953Z,98582.00
2023-03-17T12:02:48.509Z,98587.00
2023-03-17T12:04:34.130Z,98586.00
2023-03-17T12:06:20.656Z,98585.00
2023-03-17T12:07:58.906Z,98587.00
2023-03-17T12:09:39.626Z,98581.00
2023-03-17T12:11:20.356Z,98578.00
2023-03-17T12:12:59.840Z,98581.00
2023-03-17T12:14:40.332Z,98572.00
2023-03-17T12:16:19.534Z,98585.00
2023-03-17T12:17:58.596Z,98578.00
2023-03-17T12:19:43.563Z,98574.00
2023-03-17T12:21:31.047Z,98574.00
2023-03-17T12:23:15.307Z,98570.00
2023-03-17T12:24:57.909Z,98572.00
2023-03-17T12:26:39.616Z,98569.00
2023-03-17T12:28:16.911Z,98574.00
2023-03-17T12:29:58.135Z,98573.00
2023-03-17T12:31:37.154Z,98573.00
2023-03-17T12:33:22.948Z,98576.00
2023-03-17T12:35:00.129Z,98573.00
2023-03-17T12:36:35.310Z,98576.00
2023-03-17T12:38:17.658Z,98577.00
2023-03-17T12:40:00.688Z,98578.00
2023-03-17T12:41:59.685Z,98571.00
2023-03-17T12:43:46.812Z,98563.00
2023-03-17T12:45:42.429Z,98569.00
2023-03-17T12:47:48.880Z,98556.00
2023-03-17T12:50:02.678Z,98550.00
2023-03-17T12:52:06.723Z,98553.00
2023-03-17T12:53:44.340Z,98557.00
2023-03-17T12:55:25.148Z,98539.00
2023-03-17T12:57:11.668Z,98547.00
2023-03-17T12:58:51.504Z,98538.00
2023-03-17T13:00:30.611Z,98545.00
2023-03-17T13:02:32.328Z,98539.00
2023-03-17T13:04:19.609Z,98537.00
2023-03-17T13:06:05.381Z,98542.00
2023-03-17T13:07:48.583Z,98539.00
2023-03-17T13:09:44.050Z,98534.00
2023-03-17T13:11:30.897Z,98539.00
2023-03-17T13:13:46.335Z,98545.00
2023-03-17T13:15:31.349Z,98526.00
2023-03-17T13:17:29.026Z,98526.00
2023-03-17T13:19:21.926Z,98508.00
2023-03-17T13:21:13.859Z,98535.00
2023-03-17T13:23:13.239Z,98534.00
2023-03-17T13:24:51.923Z,98521.00
2023-03-17T13:27:12.229Z,98530.00
2023-03-17T13:28:53.067Z,98521.00
2023-03-17T13:31:12.013Z,98522.00
2023-03-17T13:32:57.764Z,98513.00
2023-03-17T13:34:50.225Z,98511.00
2023-03-17T13:36:38.180Z,98516.00
2023-03-17T13:38:48.569Z,98516.00
2023-03-17T13:40:37.093Z,98518.00
2023-03-17T13:42:46.170Z,98510.00
2023-03-17T13:44:40.246Z,98515.00
2023-03-17T13:46:32.403Z,98510.00
2023-03-17T13:48:28.799Z,98510.00
2023-03-17T13:50:14.065Z,98506.00
2023-03-17T13:52:00.413Z,98514.00
2023-03-17T13:53:41.884Z,98503.00
2023-03-17T13:55:40.143Z,98506.00
2023-03-17T13:57:28.439Z,98499.00
2023-03-17T13:59:16.346Z,98510.00
2023-03-17T14:00:59.164Z,98506.00
2023-03-17T14:02:39.845Z,98510.00
2023-03-17T14:04:28.272Z,98497.00
2023-03-17T14:06:12.433Z,98505.00
2023-03-17T14:07:55.233Z,98509.00
2023-03-17T14:09:40.976Z,98510.00
2023-03-17T14:11:36.569Z,98496.00
2023-03-17T14:13:25.019Z,98492.00
2023-03-17T14:15:08.379Z,98499.00
2023-03-17T14:16:53.068Z,98484.00
2023-03-17T14:18:35.670Z,98487.00
2023-03-17T14:20:25.006Z,98484.00
2023-03-17T14:22:21.286Z,98490.00
2023-03-17T14:23:57.820Z,98486.00
2023-03-17T14:25:36.854Z,98491.00
2023-03-17T14:27:15.637Z,98493.00
2023-03-17T14:28:50.851Z,98501.00
2023-03-17T14:30:29.419Z,98504.00
2023-03-17T14:32:07.860Z,98526.00
2023-03-17T14:33:43.109Z,98504.00
2023-03-17T14:35:18.276Z,98513.00
2023-03-17T14:36:53.604Z,98508.00
2023-03-17T14:38:33.317Z,98516.00
2023-03-17T14:40:23.981Z,98503.00
2023-03-17T14:42:04.444Z,98497.00
2023-03-17T14:43:43.003Z,98500.00
2023-03-17T14:45:28.997Z,98493.00
2023-03-17T14:47:08.108Z,98498.00
2023-03-17T14:48:49.766Z,98490.00
2023-03-17T14:50:31.095Z,98492.00
2023-03-17T14:52:05.910Z,98497.00
2023-03-17T14:53:46.608Z,98493.00
2023-03-17T14:55:21.093Z,98491.00
2023-03-17T14:57:01.983Z,98482.00
2023-03-17T14:58:42.537Z,98474.00
2023-03-17T15:00:34.958Z,98481.00
2023-03-17T15:02:33.215Z,98482.00
2023-03-17T15:04:14.739Z,98481.00
2023-03-17T15:05:51.718Z,98489.00
2023-03-17T15:07:40.301Z,98489.00
2023-03-17T15:09:28.078Z,98486.00
2023-03-17T15:11:05.449Z,98482.00
2023-03-17T15:12:42.067Z,98482.00
2023-03-17T15:14:25.158Z,98482.00
2023-03-17T15:16:04.201Z,98491.00
2023-03-17T15:17:41.003Z,98484.00
2023-03-17T15:19:24.173Z,98492.00
2023-03-17T15:21:00.422Z,98493.00
2023-03-17T15:22:45.700Z,98502.00
2023-03-17T15:24:30.058Z,98489.00
2023-03-17T15:26:10.553Z,98498.00
2023-03-17T15:27:47.961Z,98499.00
2023-03-17T15:29:22.647Z,98498.00
2023-03-17T15:31:14.225Z,98491.00
2023-03-17T15:32:54.637Z,98503.00
2023-03-17T15:34:30.113Z,98501.00
2023-03-17T15:36:07.959Z,98504.00
2023-03-17T15:37:44.697Z,98517.00
2023-03-17T15:39:19.686Z,98518.00
2023-03-17T15:40:57.279Z,98512.00
2023-03-17T15:42:34.429Z,98522.00
2023-03-17T15:44:10.068Z,98509.00
2023-03-17T15:45:47.896Z,98496.00
2023-03-17T15:47:27.114Z,98501.00
2023-03-17T15:49:08.076Z,98503.00
2023-03-17T15:50:58.176Z,98504.00
2023-03-17T15:52:43.173Z,98500.00
2023-03-17T15:54:37.978Z,98485.00
2023-03-17T15:56:40.203Z,98488.00
2023-03-17T15:58:31.126Z,98494.00
2023-03-17T16:00:15.355Z,98500.00
2023-03-17T16:02:06.234Z,98493.00
2023-03-17T16:03:51.162Z,98500.00
2023-03-17T16:05:48.575Z,98502.00
2023-03-17T16:07:34.644Z,98507.00
2023-03-17T16:09:24.758Z,98505.00
2023-03-17T16:11:08.589Z,98513.00
2023-03-17T16:12:55.414Z,98510.00
2023-03-17T16:14:42.524Z,98520.00
2023-03-17T16:16:37.741Z,98517.00
2023-03-17T16:18:35.279Z,98519.00
2023-03-17T16:20:28.659Z,98525.00
2023-03-17T16:22:44.082Z,98513.00
2023-03-17T16:24:36.404Z,98511.00
2023-03-17T16:26:23.215Z,98509.00
2023-03-17T16:28:15.794Z,98515.00
2023-03-17T16:29:58.758Z,98519.00
2023-03-17T16:31:45.924Z,98516.00
2023-03-17T16:33:31.426Z,98525.00
2023-03-17T16:35:22.524Z,98527.00
2023-03-17T16:37:05.181Z,98526.00
2023-03-17T16:38:53.388Z,98521.00
2023-03-17T16:40:39.650Z,98518.00
2023-03-17T16:42:35.249Z,98504.00
2023-03-17T16:44:22.699Z,98498.00
2023-03-17T16:46:11.092Z,98489.00
2023-03-17T16:48:05.764Z,98493.00
2023-03-17T16:50:00.751Z,98477.00
2023-03-17T16:51:43.749Z,98463.00
2023-03-17T16:53:30.283Z,98459.00
2023-03-17T16:55:10.239Z,98460.00
2023-03-17T16:56:59.212Z,98452.00
2023-03-17T16:58:45.821Z,98470.00
2023-03-17T17:00:35.920Z,98479.00
2023-03-17T17:02:25.453Z,98490.00
2023-03-17T17:04:14.174Z,98494.00
2023-03-17T17:05:52.242Z,98501.00
2023-03-17T17:07:27.063Z,98495.00
2023-03-17T17:09:01.430Z,98492.00
2023-03-17T17:10:37.737Z,98498.00
2023-03-17T17:12:12.775Z,98504.00
2023-03-17T17:13:49.849Z,98513.00
2023-03-17T17:15:26.240Z,98512.00
2023-03-17T17:17:01.432Z,98506.00
2023-03-17T17:18:37.901Z,98511.00
2023-03-17T17:20:18.999Z,98511.00
2023-03-17T17:21:54.098Z,98498.00
2023-03-17T17:23:30.067Z,98511.00
2023-03-17T17:25:05.079Z,98514.00
2023-03-17T17:26:39.601Z,98518.00
2023-03-17T17:28:17.676Z,98522.00
2023-03-17T17:29:52.394Z,98521.00
2023-03-17T17:31:30.021Z,98541.00
2023-03-17T17:33:06.561Z,98531.00
2023-03-17T17:34:41.973Z,98527.00
2023-03-17T17:36:17.409Z,98526.00
2023-03-17T17:37:51.981Z,98523.00
2023-03-17T17:39:27.359Z,98507.00
2023-03-17T17:41:06.521Z,98518.00
2023-03-17T17:42:42.883Z,98523.00
2023-03-17T17:44:17.356Z,98537.00
2023-03-17T17:45:52.621Z,98542.00
2023-03-17T17:47:32.223Z,98536.00
2023-03-17T17:49:07.627Z,98518.00
2023-03-17T17:50:43.906Z,98523.00
2023-03-17T17:52:18.626Z,98528.00
2023-03-17T17:53:52.997Z,98527.00
2023-03-17T17:55:27.927Z,98543.00
2023-03-17T17:57:04.950Z,98542.00
2023-03-17T17:58:39.176Z,98528.00
2023-03-17T18:00:17.451Z,98528.00
2023-03-17T18:01:52.864Z,98523.00
2023-03-17T18:03:31.630Z,98519.00
2023-03-17T18:05:09.142Z,98515.00
2023-03-17T18:06:45.339Z,98517.00
2023-03-17T18:08:21.145Z,98525.00
2023-03-17T18:09:56.179Z,98505.00
2023-03-17T18:11:31.486Z,98509.00
2023-03-17T18:13:06.558Z,98506.00
2023-03-17T18:14:41.437Z,98512.00
2023-03-17T18:16:18.742Z,98514.00
2023-03-17T18:17:54.328Z,98516.00
2023-03-17T18:19:30.650Z,98530.00
2023-03-17T18:21:06.533Z,98535.00
2023-03-17T18:22:41.926Z,98535.00
2023-03-17T18:24:17.779Z,98545.00
2023-03-17T18:25:52.197Z,98559.00
2023-03-17T18:27:30.088Z,98565.00
2023-03-17T18:29:10.733Z,98569.00
2023-03-17T18:30:49.487Z,98573.00
2023-03-17T18:32:25.188Z,98572.00
2023-03-17T18:34:08.011Z,98563.00
2023-03-17T18:35:44.722Z,98559.00
2023-03-17T18:37:20.391Z,98549.00
2023-03-17T18:38:56.015Z,98557.00
2023-03-17T18:40:31.239Z,98569.00
2023-03-17T18:42:05.917Z,98571.00
2023-03-17T18:43:43.965Z,98569.00
2023-03-17T18:45:19.932Z,98568.00
2023-03-17T18:46:58.431Z,98576.00
2023-03-17T18:48:36.483Z,98572.00
2023-03-17T18:50:21.156Z,98579.00
2023-03-17T18:51:59.564Z,98564.00
2023-03-17T18:53:35.617Z,98566.00
2023-03-17T18:55:12.902Z,98568.00
2023-03-17T18:56:47.691Z,98558.00
2023-03-17T18:58:21.316Z,98564.00
2023-03-17T18:59:57.350Z,98574.00
2023-03-17T19:01:31.541Z,98577.00
2023-03-17T19:03:06.761Z,98578.00
2023-03-17T19:04:46.246Z,98591.00
2023-03-17T19:06:24.425Z,98588.00
2023-03-17T19:08:00.982Z,98584.00
2023-03-17T19:09:36.071Z,98580.00
2023-03-17T19:11:17.148Z,98577.00
2023-03-17T19:12:54.030Z,98570.00
2023-03-17T19:14:28.741Z,98565.00
2023-03-17T19:16:02.864Z,98570.00